Time;durP1;ratioP1;P1;durP2;ratioP2;P2;SDS_P1;SDS_P2;PMS_P1;PMS_P2;Temp;Humidity;BMP_temperature;BMP_pressure;BME280_temperature;BME280_humidity;BME280_pressure;Samples;Min_cycle;Max_cycle;Signal;HPM_P1;HPM_P2
2021/06/04 00:00:30;;;;;;;44.77;23.00;;;15.40;99.90;;;;;;5074772;28;20597;-91
2021/06/04 00:03:06;;;;;;;48.30;21.47;;;15.40;99.90;;;;;;5079002;28;20540;-92
2021/06/04 00:05:36;;;;;;;34.77;18.33;;;15.40;99.90;;;;;;5077177;28;20224;-92
2021/06/04 00:08:02;;;;;;;27.63;16.47;;;15.10;99.90;;;;;;5075149;28;20215;-91
2021/06/04 00:10:36;;;;;;;33.60;18.23;;;14.80;99.90;;;;;;5058649;28;20205;-91
2021/06/04 00:13:36;;;;;;;31.77;18.10;;;14.50;99.90;;;;;;5092570;28;20754;-91
2021/06/04 00:16:11;;;;;;;29.20;17.40;;;14.50;99.90;;;;;;5074762;28;20579;-91
2021/06/04 00:18:39;;;;;;;29.90;17.60;;;14.60;99.90;;;;;;5073566;28;20365;-91
2021/06/04 00:21:08;;;;;;;36.13;19.77;;;14.60;99.90;;;;;;5057550;28;20282;-91
2021/06/04 00:23:34;;;;;;;44.97;20.50;;;14.80;99.90;;;;;;5074979;28;20188;-90
2021/06/04 00:26:00;;;;;;;42.30;21.20;;;15.00;99.90;;;;;;5051865;28;20587;-90
2021/06/04 00:28:29;;;;;;;40.13;21.87;;;15.10;99.90;;;;;;5041943;28;20235;-91
2021/06/04 00:30:55;;;;;;;47.50;22.80;;;15.10;99.90;;;;;;5051385;28;20235;-90
2021/06/04 00:33:21;;;;;;;37.17;20.20;;;15.10;99.90;;;;;;5057918;28;20228;-91
2021/06/04 00:35:47;;;;;;;43.13;21.60;;;15.00;99.90;;;;;;5075333;28;20212;-91
2021/06/04 00:38:13;;;;;;;39.07;21.17;;;14.90;99.90;;;;;;5056798;28;20274;-91
2021/06/04 00:40:43;;;;;;;44.90;22.20;;;15.00;99.90;;;;;;5040427;28;20213;-90
2021/06/04 00:43:09;;;;;;;52.80;25.00;;;15.00;99.90;;;;;;5073207;28;20232;-91
2021/06/04 00:45:40;;;;;;;52.20;24.43;;;15.10;99.90;;;;;;5073752;28;20290;-91
2021/06/04 00:48:06;;;;;;;52.70;26.23;;;15.20;99.90;;;;;;5075420;28;20188;-92
2021/06/04 00:50:40;;;;;;;46.40;22.40;;;15.20;99.90;;;;;;5042827;28;20192;-91
2021/06/04 00:53:07;;;;;;;42.27;23.60;;;15.20;99.90;;;;;;5074964;28;20269;-91
2021/06/04 00:55:35;;;;;;;50.57;22.00;;;15.30;99.90;;;;;;5058445;28;20251;-91
2021/06/04 00:58:01;;;;;;;42.77;20.63;;;15.30;99.90;;;;;;5058284;28;20240;-92
2021/06/04 01:00:43;;;;;;;44.43;21.47;;;15.20;99.90;;;;;;5072456;28;20219;-91
2021/06/04 01:03:11;;;;;;;42.43;21.30;;;15.10;99.90;;;;;;5072593;28;20177;-91
2021/06/04 01:05:40;;;;;;;35.17;20.37;;;15.10;99.90;;;;;;5078777;28;20230;-91
2021/06/04 01:08:25;;;;;;;42.63;21.20;;;15.00;99.90;;;;;;5077297;28;20236;-91
2021/06/04 01:10:50;;;;;;;37.87;19.57;;;14.90;99.90;;;;;;5074534;28;20212;-92
2021/06/04 01:13:29;;;;;;;34.40;19.43;;;14.80;99.90;;;;;;5079101;28;20219;-92
2021/06/04 01:16:40;;;;;;;38.73;20.10;;;14.80;99.90;;;;;;5074280;28;20212;-92
2021/06/04 01:19:17;;;;;;;40.67;20.97;;;14.80;99.90;;;;;;5027335;28;20226;-91
2021/06/04 01:21:49;;;;;;;40.50;19.63;;;14.90;99.90;;;;;;5027694;28;20245;-92
2021/06/04 01:24:34;;;;;;;43.03;21.97;;;15.00;99.90;;;;;;5054394;28;20216;-92
2021/06/04 01:27:07;;;;;;;35.53;19.47;;;15.10;99.90;;;;;;5075024;28;20178;-92
2021/06/04 01:29:40;;;;;;;50.73;20.17;;;15.10;99.90;;;;;;5077232;28;20639;-92
2021/06/04 01:32:13;;;;;;;40.03;18.97;;;15.10;99.90;;;;;;5075493;28;20216;-92
2021/06/04 01:34:43;;;;;;;39.63;19.37;;;15.10;99.90;;;;;;5075319;28;20224;-92
2021/06/04 01:37:18;;;;;;;43.50;19.17;;;15.10;99.90;;;;;;5074975;28;20220;-92
2021/06/04 01:39:49;;;;;;;34.03;17.43;;;15.00;99.90;;;;;;5074942;28;20232;-91
2021/06/04 01:42:19;;;;;;;30.90;17.50;;;14.90;99.90;;;;;;5091844;28;20180;-90
2021/06/04 01:45:03;;;;;;;42.03;18.77;;;15.00;99.90;;;;;;5075885;28;20165;-91
2021/06/04 01:47:36;;;;;;;36.77;19.33;;;15.00;99.90;;;;;;5073499;28;20257;-91
2021/06/04 01:50:07;;;;;;;38.23;17.90;;;15.00;99.90;;;;;;5073023;28;20832;-91
2021/06/04 01:52:36;;;;;;;44.00;21.93;;;15.00;99.90;;;;;;5074817;28;20240;-91
2021/06/04 01:55:16;;;;;;;36.77;21.90;;;15.00;99.90;;;;;;5056463;28;20265;-91
2021/06/04 01:57:57;;;;;;;39.10;19.23;;;15.10;99.90;;;;;;5072251;28;20221;-91
2021/06/04 02:00:41;;;;;;;38.80;20.67;;;15.10;99.90;;;;;;5074431;28;20243;-92
2021/06/04 02:03:12;;;;;;;32.80;16.70;;;15.10;99.90;;;;;;5071115;28;20184;-92
2021/06/04 02:05:39;;;;;;;39.57;19.30;;;15.10;99.90;;;;;;5075884;28;20187;-91
2021/06/04 02:08:09;;;;;;;38.00;19.90;;;15.10;99.90;;;;;;5058946;28;20820;-92
2021/06/04 02:10:39;;;;;;;37.47;20.73;;;15.10;99.90;;;;;;5075468;28;20299;-91
2021/06/04 02:13:07;;;;;;;49.90;20.57;;;15.10;99.90;;;;;;5072362;28;20237;-92
2021/06/04 02:15:36;;;;;;;41.93;19.07;;;15.10;99.90;;;;;;5071947;28;20215;-91
2021/06/04 02:18:31;;;;;;;47.53;20.70;;;15.10;99.90;;;;;;5073600;28;20712;-92
2021/06/04 02:21:10;;;;;;;37.93;19.07;;;15.10;99.90;;;;;;5076143;28;20664;-93
2021/06/04 02:23:54;;;;;;;42.37;20.10;;;15.10;99.90;;;;;;5075605;28;20326;-92
2021/06/04 02:26:32;;;;;;;39.27;19.00;;;15.10;99.90;;;;;;5075800;28;20219;-92
2021/06/04 02:29:30;;;;;;;38.33;19.03;;;15.10;99.90;;;;;;5076067;28;20302;-92
2021/06/04 02:32:25;;;;;;;36.03;19.37;;;15.10;99.90;;;;;;5084384;28;20217;-93
2021/06/04 02:34:57;;;;;;;37.70;19.60;;;15.10;99.90;;;;;;5073414;28;20300;-92
2021/06/04 02:37:40;;;;;;;37.97;19.47;;;15.10;99.90;;;;;;5084106;28;20209;-92
2021/06/04 02:40:32;;;;;;;34.40;18.10;;;15.00;99.90;;;;;;5071296;28;20771;-92
2021/06/04 02:43:30;;;;;;;26.50;15.43;;;14.80;99.90;;;;;;5070452;28;20217;-92
2021/06/04 02:46:06;;;;;;;30.20;15.73;;;14.50;99.90;;;;;;5077034;28;20588;-92
2021/06/04 02:48:32;;;;;;;31.27;15.03;;;14.40;99.90;;;;;;5076495;28;20303;-92
2021/06/04 02:51:12;;;;;;;24.93;13.97;;;14.20;99.90;;;;;;5073588;28;20283;-91
2021/06/04 02:53:59;;;;;;;28.13;15.03;;;14.20;99.90;;;;;;5074318;28;20181;-92
2021/06/04 02:56:29;;;;;;;24.30;14.77;;;14.20;99.90;;;;;;5078324;28;20582;-91
2021/06/04 02:59:11;;;;;;;26.00;14.43;;;14.30;99.90;;;;;;5076022;28;20240;-91
2021/06/04 03:01:44;;;;;;;34.37;14.80;;;14.10;99.90;;;;;;5078405;28;20227;-92
2021/06/04 03:04:13;;;;;;;30.10;15.43;;;14.10;99.90;;;;;;5096298;28;20719;-92
2021/06/04 03:06:45;;;;;;;29.17;14.47;;;14.10;99.90;;;;;;5074672;28;20689;-91
2021/06/04 03:09:20;;;;;;;28.50;14.13;;;14.10;99.90;;;;;;5077283;28;20184;-92
2021/06/04 03:11:46;;;;;;;26.13;13.97;;;14.00;99.90;;;;;;5075567;28;20236;-92
2021/06/04 03:14:15;;;;;;;34.50;17.50;;;14.10;99.90;;;;;;5076011;28;20212;-91
2021/06/04 03:16:42;;;;;;;41.80;19.70;;;14.10;99.90;;;;;;5075899;28;20220;-91
2021/06/04 03:19:11;;;;;;;43.97;19.43;;;14.20;99.90;;;;;;5076081;28;20260;-91
2021/06/04 03:21:47;;;;;;;37.43;18.33;;;14.30;99.90;;;;;;5080964;28;20719;-91
2021/06/04 03:24:17;;;;;;;38.97;20.10;;;14.40;99.90;;;;;;5077693;28;20188;-91
2021/06/04 03:26:43;;;;;;;38.53;18.33;;;14.50;99.90;;;;;;5081395;28;20275;-92
2021/06/04 03:29:12;;;;;;;31.50;18.10;;;14.50;99.90;;;;;;5061823;28;20728;-91
2021/06/04 03:31:41;;;;;;;35.20;17.17;;;14.50;99.90;;;;;;5077906;28;20220;-91
2021/06/04 03:34:08;;;;;;;37.90;18.00;;;14.50;99.90;;;;;;5079105;28;20294;-91
2021/06/04 03:36:44;;;;;;;43.80;18.33;;;14.50;99.90;;;;;;5081305;28;20220;-91
2021/06/04 03:39:15;;;;;;;38.20;16.43;;;14.60;99.90;;;;;;5078157;28;20227;-92
2021/06/04 03:41:42;;;;;;;35.33;18.00;;;14.60;99.90;;;;;;5081886;28;20250;-91
2021/06/04 03:44:11;;;;;;;37.40;18.07;;;14.60;99.90;;;;;;5049060;28;20292;-91
2021/06/04 03:46:37;;;;;;;40.00;19.07;;;14.70;99.90;;;;;;5079672;28;20744;-92
2021/06/04 03:49:04;;;;;;;35.93;19.87;;;14.80;99.90;;;;;;5062798;28;20691;-92
2021/06/04 03:51:34;;;;;;;39.07;20.70;;;14.90;99.90;;;;;;5065119;28;20667;-92
2021/06/04 03:54:00;;;;;;;33.90;18.60;;;15.00;99.90;;;;;;5081895;28;20241;-91
2021/06/04 03:56:26;;;;;;;46.77;24.07;;;15.00;99.90;;;;;;5081416;28;20184;-91
2021/06/04 03:58:54;;;;;;;39.83;20.80;;;15.10;99.90;;;;;;5097818;28;20224;-91
2021/06/04 04:01:40;;;;;;;50.97;21.70;;;15.20;99.90;;;;;;5060726;28;20220;-92
2021/06/04 04:04:07;;;;;;;41.23;21.60;;;15.30;99.90;;;;;;5080035;28;20223;-90
2021/06/04 04:06:33;;;;;;;43.40;23.47;;;15.40;99.90;;;;;;5078540;28;20209;-92
2021/06/04 04:08:59;;;;;;;52.00;21.63;;;15.40;99.90;;;;;;5079010;28;20191;-91
2021/06/04 04:11:25;;;;;;;46.27;20.33;;;15.50;99.90;;;;;;5061559;28;20216;-91
2021/06/04 04:13:51;;;;;;;38.37;19.03;;;15.60;99.90;;;;;;5078458;28;20871;-91
2021/06/04 04:16:17;;;;;;;43.70;21.03;;;15.60;99.90;;;;;;5045695;28;20221;-91
2021/06/04 04:18:43;;;;;;;47.50;21.33;;;15.60;99.90;;;;;;5046921;28;20637;-90
2021/06/04 04:21:11;;;;;;;43.60;19.53;;;15.70;99.90;;;;;;5074708;28;20215;-89
2021/06/04 04:23:44;;;;;;;45.00;21.97;;;15.80;99.90;;;;;;5094381;28;20246;-90
2021/06/04 04:26:15;;;;;;;50.53;24.40;;;15.80;99.90;;;;;;5078191;28;20239;-89
2021/06/04 04:28:45;;;;;;;43.73;19.43;;;15.90;99.90;;;;;;5077797;28;20689;-89
2021/06/04 04:31:14;;;;;;;40.37;21.20;;;16.00;99.90;;;;;;5076608;28;20238;-88
2021/06/04 04:33:40;;;;;;;46.00;20.70;;;16.10;99.90;;;;;;5077034;28;20231;-88
2021/06/04 04:36:08;;;;;;;35.40;20.97;;;16.10;99.90;;;;;;5043055;28;20188;-89
2021/06/04 04:38:35;;;;;;;40.00;19.40;;;16.20;99.90;;;;;;5095098;28;20250;-91
2021/06/04 04:41:03;;;;;;;43.07;21.80;;;16.30;99.90;;;;;;5041957;28;20216;-89
2021/06/04 04:43:38;;;;;;;36.60;19.13;;;16.30;99.90;;;;;;5077146;28;20257;-89
2021/06/04 04:46:06;;;;;;;44.43;19.73;;;16.50;99.90;;;;;;5077835;28;20216;-88
2021/06/04 04:48:33;;;;;;;43.00;22.33;;;16.60;99.90;;;;;;5077408;28;20216;-89
2021/06/04 04:50:58;;;;;;;43.40;20.43;;;16.90;99.90;;;;;;5076966;28;20191;-90
2021/06/04 04:53:25;;;;;;;38.73;20.00;;;16.90;99.90;;;;;;5046366;28;20180;-89
2021/06/04 04:55:51;;;;;;;41.10;20.53;;;17.20;99.90;;;;;;5058861;28;20251;-91
2021/06/04 04:58:18;;;;;;;45.30;21.10;;;17.30;99.90;;;;;;5056944;28;20626;-89
2021/06/04 05:00:44;;;;;;;38.83;18.57;;;17.50;99.90;;;;;;5060094;28;20208;-89
2021/06/04 05:03:12;;;;;;;39.97;20.17;;;17.80;99.90;;;;;;5052495;28;20183;-90
2021/06/04 05:05:39;;;;;;;38.63;20.17;;;17.90;99.90;;;;;;5065382;28;20612;-90
2021/06/04 05:08:06;;;;;;;38.43;20.23;;;18.10;99.90;;;;;;5077059;28;20218;-89
2021/06/04 05:10:32;;;;;;;34.97;20.27;;;18.30;99.90;;;;;;5076133;28;20778;-90
2021/06/04 05:13:01;;;;;;;43.13;21.97;;;18.30;99.90;;;;;;5062482;28;20591;-88
2021/06/04 05:15:30;;;;;;;39.20;19.83;;;18.80;99.90;;;;;;5077384;28;20212;-88
2021/06/04 05:17:57;;;;;;;44.57;22.43;;;19.30;99.90;;;;;;5076644;28;20566;-89
2021/06/04 05:20:24;;;;;;;36.30;22.07;;;20.10;99.90;;;;;;5060371;28;20676;-89
2021/06/04 05:22:50;;;;;;;50.87;22.70;;;20.50;99.90;;;;;;5077075;28;20207;-89
2021/06/04 05:25:20;;;;;;;40.97;21.07;;;21.80;99.90;;;;;;5043069;28;20608;-88
2021/06/04 05:27:46;;;;;;;41.90;21.13;;;23.20;99.90;;;;;;5075967;28;20220;-89
2021/06/04 05:30:19;;;;;;;40.27;20.47;;;23.10;99.90;;;;;;5058059;28;20276;-89
2021/06/04 05:32:45;;;;;;;35.17;19.63;;;23.60;99.90;;;;;;5077551;28;20180;-89
2021/06/04 05:35:11;;;;;;;38.20;21.73;;;24.80;99.90;;;;;;5058535;28;20266;-90
2021/06/04 05:37:38;;;;;;;33.87;19.47;;;25.40;99.90;;;;;;5092401;28;20346;-90
2021/06/04 05:40:11;;;;;;;41.30;23.97;;;25.20;99.90;;;;;;5059516;28;20216;-86
2021/06/04 05:42:38;;;;;;;37.63;22.50;;;24.90;99.90;;;;;;5074491;28;20212;-90
2021/06/04 05:45:06;;;;;;;40.97;23.10;;;24.80;99.90;;;;;;5058369;28;20188;-87
2021/06/04 05:47:31;;;;;;;35.90;23.43;;;25.10;99.90;;;;;;5076377;28;20534;-86
2021/06/04 05:49:57;;;;;;;40.70;22.37;;;25.70;99.90;;;;;;5041939;28;20219;-89
2021/06/04 05:52:23;;;;;;;41.13;22.90;;;24.80;99.90;;;;;;5093265;28;20294;-88
2021/06/04 05:54:49;;;;;;;47.77;25.43;;;23.90;99.90;;;;;;5042598;28;20281;-87
2021/06/04 05:57:15;;;;;;;31.60;21.40;;;22.90;99.90;;;;;;5058450;28;20184;-88
2021/06/04 05:59:41;;;;;;;38.27;24.63;;;22.20;99.90;;;;;;5078634;28;20581;-88
2021/06/04 06:02:08;;;;;;;44.97;26.63;;;21.70;99.90;;;;;;5044357;28;20251;-90
2021/06/04 06:04:34;;;;;;;49.70;28.37;;;21.30;99.90;;;;;;5074652;28;20215;-89
2021/06/04 06:07:03;;;;;;;46.90;28.47;;;20.70;99.90;;;;;;5041441;28;20213;-88
2021/06/04 06:09:29;;;;;;;52.13;30.53;;;19.80;99.90;;;;;;5052639;28;20207;-89
2021/06/04 06:11:55;;;;;;;47.93;28.50;;;19.80;99.90;;;;;;5060863;28;20192;-90
2021/06/04 06:14:21;;;;;;;34.27;23.93;;;19.70;99.90;;;;;;5076564;28;20266;-90
2021/06/04 06:16:47;;;;;;;40.77;26.13;;;20.10;99.90;;;;;;5041493;28;20204;-89
2021/06/04 06:19:15;;;;;;;44.03;28.93;;;21.50;99.90;;;;;;5068317;28;20827;-90
2021/06/04 06:21:43;;;;;;;43.80;30.77;;;21.80;99.90;;;;;;5075187;28;20542;-89
2021/06/04 06:24:10;;;;;;;45.27;28.00;;;21.70;99.90;;;;;;5073209;28;20177;-88
2021/06/04 06:26:37;;;;;;;43.53;26.80;;;22.00;99.90;;;;;;5080504;28;20691;-88
2021/06/04 06:29:05;;;;;;;48.90;31.57;;;20.90;99.90;;;;;;5074312;28;20199;-90
2021/06/04 06:31:35;;;;;;;45.90;28.03;;;20.10;99.90;;;;;;5076037;28;20221;-88
2021/06/04 06:34:03;;;;;;;51.60;30.40;;;19.70;99.90;;;;;;5075899;28;20212;-89
2021/06/04 06:36:32;;;;;;;48.90;28.80;;;19.50;99.90;;;;;;5073969;28;20303;-88
2021/06/04 06:39:13;;;;;;;46.60;29.33;;;19.20;99.90;;;;;;5073775;28;20248;-89
2021/06/04 06:41:43;;;;;;;41.87;25.87;;;18.90;99.90;;;;;;5077569;28;20193;-87
2021/06/04 06:44:09;;;;;;;47.97;29.17;;;18.40;99.90;;;;;;5073780;28;20661;-88
2021/06/04 06:46:36;;;;;;;42.90;28.53;;;18.10;99.90;;;;;;5075929;28;20309;-87
2021/06/04 06:49:03;;;;;;;43.13;28.93;;;18.00;99.90;;;;;;5072232;28;20227;-89
2021/06/04 06:51:32;;;;;;;45.50;27.97;;;17.90;99.90;;;;;;5087440;28;20207;-89
2021/06/04 06:53:59;;;;;;;49.17;28.37;;;17.80;99.90;;;;;;5059340;28;20225;-89
2021/06/04 06:56:25;;;;;;;46.17;27.10;;;17.70;99.90;;;;;;5062735;28;20196;-86
2021/06/04 06:58:51;;;;;;;55.13;29.13;;;17.50;99.90;;;;;;5071400;28;20638;-88
2021/06/04 07:01:17;;;;;;;51.93;31.13;;;17.40;99.90;;;;;;5061838;28;20208;-88
2021/06/04 07:03:43;;;;;;;48.67;27.53;;;17.40;99.90;;;;;;5060888;28;20216;-87
2021/06/04 07:06:23;;;;;;;48.83;27.70;;;17.50;99.90;;;;;;5076290;28;20180;-90
2021/06/04 07:08:49;;;;;;;48.00;29.43;;;17.60;99.90;;;;;;5081884;28;20431;-90
2021/06/04 07:11:16;;;;;;;52.47;30.30;;;17.40;99.90;;;;;;5078013;28;20220;-90
2021/06/04 07:13:42;;;;;;;46.63;28.73;;;17.70;99.90;;;;;;5061629;28;20242;-89
2021/06/04 07:16:10;;;;;;;40.63;25.57;;;17.80;99.90;;;;;;5078559;28;20244;-90
2021/06/04 07:18:38;;;;;;;45.50;27.97;;;17.70;99.90;;;;;;5077520;28;20226;-89
2021/06/04 07:21:06;;;;;;;50.83;28.00;;;17.80;99.90;;;;;;5094456;28;20311;-89
2021/06/04 07:23:32;;;;;;;45.57;24.03;;;17.90;99.90;;;;;;5079384;28;20188;-89
2021/06/04 07:25:58;;;;;;;47.20;23.80;;;17.80;99.90;;;;;;5079816;28;20234;-89
2021/06/04 07:28:27;;;;;;;41.60;25.23;;;17.80;99.90;;;;;;5077748;28;20221;-89
2021/06/04 07:30:55;;;;;;;44.50;24.93;;;17.70;99.90;;;;;;5080355;28;20263;-89
2021/06/04 07:33:28;;;;;;;41.03;24.83;;;17.50;99.90;;;;;;5062068;28;20215;-89
2021/06/04 07:35:57;;;;;;;42.30;25.90;;;17.60;99.90;;;;;;5078111;28;20173;-89
2021/06/04 07:38:23;;;;;;;42.50;24.70;;;17.80;99.90;;;;;;5076037;28;20221;-92
2021/06/04 07:40:54;;;;;;;43.23;25.30;;;18.20;99.90;;;;;;5058328;28;20753;-90
2021/06/04 07:43:25;;;;;;;37.77;23.37;;;18.60;99.90;;;;;;5074557;28;20701;-90
2021/06/04 07:45:52;;;;;;;38.97;25.10;;;19.40;99.90;;;;;;5077132;28;20220;-92
2021/06/04 07:48:20;;;;;;;46.23;27.20;;;20.00;99.90;;;;;;5061752;28;20196;-91
2021/06/04 07:50:49;;;;;;;38.60;23.90;;;20.20;99.90;;;;;;5058909;28;20203;-92
2021/06/04 07:53:21;;;;;;;39.87;23.47;;;19.90;99.90;;;;;;5076969;28;20213;-91
2021/06/04 07:55:48;;;;;;;36.63;20.90;;;19.60;99.90;;;;;;5091389;28;20838;-91
2021/06/04 07:58:14;;;;;;;36.67;23.03;;;19.40;99.90;;;;;;5061310;28;20251;-91
2021/06/04 08:00:40;;;;;;;39.17;23.83;;;19.90;99.90;;;;;;5056628;28;20205;-90
2021/06/04 08:03:08;;;;;;;39.43;24.63;;;20.80;99.90;;;;;;5056580;28;20269;-91
2021/06/04 08:05:35;;;;;;;30.90;20.97;;;21.30;99.90;;;;;;5076990;28;20248;-91
2021/06/04 08:08:05;;;;;;;31.47;21.47;;;21.10;99.90;;;;;;5058746;28;20607;-90
2021/06/04 08:10:35;;;;;;;26.60;19.17;;;20.70;99.90;;;;;;5072581;28;20274;-90
2021/06/04 08:13:02;;;;;;;29.93;21.70;;;20.10;99.90;;;;;;5074187;28;20232;-91
2021/06/04 08:15:31;;;;;;;33.87;22.00;;;20.40;99.90;;;;;;5075090;28;20227;-90
2021/06/04 08:17:57;;;;;;;34.90;23.10;;;21.10;99.90;;;;;;5075714;28;20232;-90
2021/06/04 08:20:26;;;;;;;32.60;22.87;;;21.90;99.90;;;;;;5056215;28;20296;-91
2021/06/04 08:22:55;;;;;;;30.97;22.13;;;23.00;99.90;;;;;;5077430;28;20619;-91
2021/06/04 08:25:25;;;;;;;35.60;23.33;;;23.10;99.90;;;;;;5092691;28;21042;-90
2021/06/04 08:27:51;;;;;;;29.80;21.63;;;22.70;99.90;;;;;;5074858;28;20221;-90
2021/06/04 08:30:18;;;;;;;36.37;24.17;;;23.90;99.90;;;;;;5050852;28;20205;-91
2021/06/04 08:32:43;;;;;;;34.00;25.50;;;24.80;99.90;;;;;;5041690;28;20204;-90
2021/06/04 08:35:11;;;;;;;33.83;24.35;;;25.40;99.90;;;;;;5056843;28;20221;-91
2021/06/04 08:37:40;;;;;;;36.60;23.20;;;25.20;99.90;;;;;;5075031;28;20304;-90
2021/06/04 08:40:10;;;;;;;33.75;25.13;;;25.40;99.90;;;;;;5070883;28;20253;-90
2021/06/04 08:42:57;;;;;;;33.60;25.17;;;26.10;99.90;;;;;;5063507;28;20236;-90
2021/06/04 08:45:39;;;;;;;31.90;22.45;;;26.60;99.90;;;;;;5063679;28;20228;-91
2021/06/04 08:48:22;;;;;;;34.97;24.35;;;25.60;99.90;;;;;;5063272;28;20181;-92
2021/06/04 08:51:15;;;;;;;32.92;23.83;;;24.40;99.90;;;;;;5064525;28;20642;-92
2021/06/04 08:53:56;;;;;;;35.08;22.65;;;24.60;99.90;;;;;;5072889;28;20592;-91
2021/06/04 08:56:36;;;;;;;35.58;22.48;;;24.70;99.90;;;;;;5062774;28;20250;-91
2021/06/04 08:59:09;;;;;;;35.78;22.55;;;25.30;99.90;;;;;;5062742;28;20704;-91
2021/06/04 09:01:58;;;;;;;32.05;22.42;;;26.30;99.90;;;;;;5062138;28;20221;-90
2021/06/04 09:04:36;;;;;;;29.48;20.80;;;24.90;99.90;;;;;;5061896;28;20304;-89
2021/06/04 09:07:22;;;;;;;30.95;21.05;;;24.10;99.90;;;;;;5063142;28;20243;-90
2021/06/04 09:10:14;;;;;;;40.53;22.13;;;23.80;99.90;;;;;;5062851;28;20236;-90
2021/06/04 09:12:44;;;;;;;25.63;19.88;;;23.80;99.90;;;;;;5057000;28;20209;-90
2021/06/04 09:15:15;;;;;;;32.47;21.77;;;23.20;99.90;;;;;;5062504;28;20580;-90
2021/06/04 09:17:58;;;;;;;28.75;19.92;;;24.10;99.90;;;;;;5064697;28;20788;-90
2021/06/04 09:20:35;;;;;;;28.80;21.42;;;25.20;99.90;;;;;;5061613;28;20497;-87
2021/06/04 09:23:05;;;;;;;29.65;20.25;;;24.30;99.90;;;;;;5061864;28;20223;-89
2021/06/04 09:25:32;;;;;;;26.15;20.00;;;24.20;99.90;;;;;;5062035;28;20546;-88
2021/06/04 09:28:10;;;;;;;29.70;20.73;;;24.30;99.90;;;;;;5046116;28;20217;-91
2021/06/04 09:30:45;;;;;;;27.75;19.90;;;24.60;99.90;;;;;;5063313;28;20224;-93
2021/06/04 09:33:43;;;;;;;25.08;18.80;;;25.40;99.90;;;;;;5062285;28;20191;-91
2021/06/04 09:36:18;;;;;;;26.00;18.50;;;26.40;99.90;;;;;;5062492;28;20173;-90
2021/06/04 09:38:44;;;;;;;30.00;19.83;;;26.20;99.90;;;;;;5064100;28;20216;-90
2021/06/04 09:41:25;;;;;;;24.63;16.13;;;27.60;99.90;;;;;;5070175;28;20268;-91
2021/06/04 09:44:08;;;;;;;23.08;15.82;;;27.80;99.90;;;;;;5073406;28;20588;-89
2021/06/04 09:47:18;;;;;;;22.40;16.00;;;27.40;99.90;;;;;;5091347;28;21259;-88
2021/06/04 09:49:44;;;;;;;18.27;12.80;;;27.60;99.90;;;;;;5031929;28;20583;-89
2021/06/04 09:52:34;;;;;;;16.63;11.18;;;28.60;99.90;;;;;;5071592;28;20221;-88
2021/06/04 09:55:28;;;;;;;18.05;13.07;;;27.80;99.90;;;;;;5070629;28;20221;-87
2021/06/04 09:58:12;;;;;;;17.73;13.05;;;27.60;99.90;;;;;;5072961;28;20732;-89
2021/06/04 10:00:54;;;;;;;17.30;12.13;;;28.00;99.90;;;;;;5070710;28;20256;-88
2021/06/04 10:03:30;;;;;;;17.58;12.85;;;28.00;99.90;;;;;;5073708;28;20251;-88
2021/06/04 10:06:08;;;;;;;18.90;12.70;;;27.70;99.90;;;;;;5074281;28;20177;-88
2021/06/04 10:08:56;;;;;;;17.13;12.45;;;27.40;99.90;;;;;;5073831;28;20220;-88
2021/06/04 10:11:27;;;;;;;14.63;11.75;;;27.00;99.90;;;;;;5072546;28;20692;-88
2021/06/04 10:14:24;;;;;;;20.13;11.65;;;26.90;99.90;;;;;;5071879;28;20264;-88
2021/06/04 10:19:32;;;;;;;15.48;11.88;;;26.60;99.90;;;;;;5070882;28;20220;-86
2021/06/04 10:22:13;;;;;;;14.60;10.70;;;26.10;99.90;;;;;;5071785;28;20217;-87
2021/06/04 10:24:42;;;;;;;14.32;11.05;;;25.40;99.90;;;;;;5070625;28;20733;-89
2021/06/04 10:27:12;;;;;;;16.10;10.93;;;25.40;99.90;;;;;;5071781;28;20188;-88
2021/06/04 10:29:38;;;;;;;17.05;12.02;;;25.40;99.90;;;;;;5073794;28;20302;-88
2021/06/04 10:32:10;;;;;;;17.05;11.63;;;25.00;99.90;;;;;;5071557;28;20248;-88
2021/06/04 10:35:01;;;;;;;19.17;12.80;;;24.70;99.90;;;;;;5071734;28;20224;-89
2021/06/04 10:37:46;;;;;;;16.25;11.32;;;24.90;99.90;;;;;;5072005;28;20784;-90
2021/06/04 10:40:30;;;;;;;14.65;10.18;;;24.60;99.90;;;;;;5051218;28;20241;-89
2021/06/04 10:43:03;;;;;;;17.25;11.88;;;24.30;99.90;;;;;;5050772;28;20645;-88
2021/06/04 10:45:37;;;;;;;15.48;13.18;;;23.90;99.90;;;;;;5068070;28;20268;-86
2021/06/04 10:48:33;;;;;;;17.60;12.15;;;23.80;99.90;;;;;;5059408;28;20178;-87
2021/06/04 10:51:17;;;;;;;17.50;13.07;;;24.50;99.90;;;;;;5053412;28;20186;-87
2021/06/04 10:54:08;;;;;;;24.80;14.27;;;24.40;99.90;;;;;;5049762;28;20722;-91
2021/06/04 10:56:37;;;;;;;17.88;12.70;;;24.50;99.90;;;;;;5068486;28;20226;-87
2021/06/04 10:59:03;;;;;;;18.30;13.60;;;23.80;99.90;;;;;;5052472;28;20248;-88
2021/06/04 11:01:38;;;;;;;17.77;13.73;;;24.40;99.90;;;;;;5050739;28;20210;-86
2021/06/04 11:04:17;;;;;;;17.88;12.82;;;23.70;99.90;;;;;;5066114;28;20269;-88
2021/06/04 11:07:12;;;;;;;25.73;16.02;;;23.30;99.90;;;;;;5049725;28;20719;-87
2021/06/04 11:10:05;;;;;;;20.73;15.07;;;23.40;99.90;;;;;;5052939;28;20218;-90
2021/06/04 11:13:03;;;;;;;20.10;13.82;;;23.50;99.90;;;;;;5049542;28;20685;-88
2021/06/04 11:15:50;;;;;;;17.65;15.23;;;23.60;99.90;;;;;;5052001;28;20263;-88
2021/06/04 11:18:35;;;;;;;22.92;15.60;;;23.70;99.90;;;;;;5052976;28;20300;-87
2021/06/04 11:21:03;;;;;;;20.55;13.18;;;24.20;99.90;;;;;;5068713;28;20182;-90
2021/06/04 11:23:37;;;;;;;17.67;14.15;;;23.60;99.90;;;;;;5063156;28;20236;-87
2021/06/04 11:26:12;;;;;;;17.63;13.02;;;23.10;99.90;;;;;;5068841;28;20209;-87
2021/06/04 11:28:51;;;;;;;19.95;14.30;;;23.30;99.90;;;;;;5052015;28;20240;-87
2021/06/04 11:31:46;;;;;;;22.20;14.32;;;23.60;99.90;;;;;;5050169;28;20935;-88
2021/06/04 11:34:32;;;;;;;17.80;13.95;;;23.60;99.90;;;;;;5054349;28;20221;-87
2021/06/04 11:37:00;;;;;;;16.73;13.35;;;23.70;99.90;;;;;;5049696;28;20275;-87
2021/06/04 11:39:31;;;;;;;17.17;13.10;;;23.80;99.90;;;;;;5050176;28;21376;-88
2021/06/04 11:42:04;;;;;;;18.98;14.30;;;23.60;99.90;;;;;;5064297;28;20668;-89
2021/06/04 11:44:43;;;;;;;19.95;13.90;;;23.20;99.90;;;;;;5066174;28;20218;-87
2021/06/04 11:47:15;;;;;;;19.58;14.57;;;23.30;99.90;;;;;;5064777;28;20205;-87
2021/06/04 11:49:52;;;;;;;18.55;14.43;;;22.70;99.90;;;;;;5064596;28;20217;-87
2021/06/04 11:52:32;;;;;;;24.05;16.40;;;22.70;99.90;;;;;;5063811;28;20300;-88
2021/06/04 11:55:25;;;;;;;24.63;15.40;;;23.00;99.90;;;;;;5064417;28;20209;-87
2021/06/04 11:58:28;;;;;;;19.52;13.25;;;22.70;99.90;;;;;;5050491;28;20387;-90
2021/06/04 12:01:14;;;;;;;20.25;15.43;;;22.00;99.90;;;;;;5064996;28;20232;-88
2021/06/04 12:04:06;;;;;;;23.50;15.35;;;22.00;99.90;;;;;;5052356;28;20232;-88
2021/06/04 12:06:49;;;;;;;18.23;13.13;;;21.80;99.90;;;;;;5064861;28;20232;-90
2021/06/04 12:09:30;;;;;;;22.83;16.23;;;21.70;99.90;;;;;;5063456;28;20192;-89
2021/06/04 12:12:19;;;;;;;22.63;15.27;;;21.90;99.90;;;;;;5065541;28;20185;-87
2021/06/04 12:14:54;;;;;;;25.02;15.65;;;21.90;99.90;;;;;;5073129;28;20621;-88
2021/06/04 12:17:34;;;;;;;25.93;15.50;;;21.60;99.90;;;;;;5063695;28;20205;-90
2021/06/04 12:20:20;;;;;;;24.10;16.33;;;21.60;99.90;;;;;;5063214;28;20220;-86
2021/06/04 12:23:03;;;;;;;22.90;14.97;;;21.80;99.90;;;;;;5063861;28;20705;-87
2021/06/04 12:25:44;;;;;;;28.33;18.27;;;21.50;99.90;;;;;;5063819;28;20221;-87
2021/06/04 12:28:17;;;;;;;25.83;16.30;;;22.10;99.90;;;;;;5064333;28;20262;-87
2021/06/04 12:30:54;;;;;;;19.93;14.97;;;22.30;99.90;;;;;;5063316;28;20228;-87
2021/06/04 12:33:51;;;;;;;23.93;17.23;;;22.10;99.90;;;;;;5064137;28;20681;-88
2021/06/04 12:36:40;;;;;;;25.70;17.87;;;22.00;99.90;;;;;;5058563;28;20197;-89
2021/06/04 12:39:33;;;;;;;24.57;16.80;;;22.20;99.90;;;;;;5054278;28;20279;-93
2021/06/04 12:42:05;;;;;;;26.20;17.47;;;22.40;99.90;;;;;;5067123;28;20229;-93
2021/06/04 12:44:31;;;;;;;24.27;15.87;;;22.10;99.90;;;;;;5070815;28;20201;-89
2021/06/04 12:46:57;;;;;;;24.57;17.70;;;21.90;99.90;;;;;;5057275;28;20745;-90
2021/06/04 12:49:24;;;;;;;23.27;16.90;;;22.00;99.90;;;;;;5045922;28;20309;-88
2021/06/04 12:51:51;;;;;;;27.13;17.10;;;22.30;99.90;;;;;;5046465;28;20689;-88
2021/06/04 12:54:23;;;;;;;25.00;15.30;;;22.10;99.90;;;;;;5046703;28;20182;-85
2021/06/04 12:56:53;;;;;;;24.37;16.17;;;22.00;99.90;;;;;;5065183;28;20201;-85
2021/06/04 12:59:27;;;;;;;23.67;15.23;;;21.70;99.90;;;;;;5065400;28;20228;-87
2021/06/04 13:01:53;;;;;;;22.43;15.17;;;22.00;99.90;;;;;;5063827;28;20213;-88